Time;durP1;ratioP1;P1;durP2;ratioP2;P2;SDS_P1;SDS_P2;PMS_P1;PMS_P2;Temp;Humidity;BMP_temperature;BMP_pressure;BME280_temperature;BME280_humidity;BME280_pressure;Samples;Min_cycle;Max_cycle;Signal;HPM_P1;HPM_P2
2022/10/15 00:01:24;;;;;;;44.13;24.35;;;11.00;99.90;;;;;;5030112;28;20068;-89
2022/10/15 00:03:49;;;;;;;47.53;26.63;;;10.90;99.90;;;;;;5032725;28;20087;-89
2022/10/15 00:06:18;;;;;;;47.63;22.75;;;10.90;99.90;;;;;;5030901;28;20047;-89
2022/10/15 00:08:44;;;;;;;35.80;20.10;;;10.90;99.90;;;;;;5026971;28;20021;-89
2022/10/15 00:11:12;;;;;;;59.92;27.95;;;10.80;99.90;;;;;;5026565;28;22347;-87
2022/10/15 00:13:38;;;;;;;68.07;30.33;;;10.80;99.90;;;;;;5029809;28;20465;-89
2022/10/15 00:16:16;;;;;;;68.38;31.85;;;10.80;99.90;;;;;;5029496;28;20041;-89
2022/10/15 00:18:41;;;;;;;65.85;31.98;;;10.80;99.90;;;;;;5027890;28;20500;-88
2022/10/15 00:21:10;;;;;;;52.33;28.10;;;10.70;99.90;;;;;;5034916;28;20029;-89
2022/10/15 00:23:35;;;;;;;53.67;26.95;;;10.70;99.90;;;;;;5030015;28;20028;-89
2022/10/15 00:26:07;;;;;;;48.90;26.75;;;10.70;99.90;;;;;;5045829;28;20026;-88
2022/10/15 00:28:32;;;;;;;37.00;22.38;;;10.70;99.90;;;;;;5030750;28;20079;-89
2022/10/15 00:31:13;;;;;;;28.42;17.88;;;10.70;99.90;;;;;;5029277;28;20072;-88
2022/10/15 00:33:38;;;;;;;35.28;19.85;;;10.80;99.90;;;;;;5034258;28;20021;-89
2022/10/15 00:36:11;;;;;;;39.05;20.00;;;10.70;99.90;;;;;;5031077;28;20064;-89
2022/10/15 00:38:37;;;;;;;29.75;19.38;;;10.70;99.90;;;;;;5033904;28;20026;-89
2022/10/15 00:41:05;;;;;;;53.58;21.67;;;10.70;99.90;;;;;;5035920;28;20048;-89
2022/10/15 00:43:53;;;;;;;36.88;20.73;;;10.80;99.90;;;;;;5033839;28;20164;-89
2022/10/15 00:46:36;;;;;;;53.80;28.05;;;10.80;99.90;;;;;;5025779;28;20033;-90
2022/10/15 00:49:29;;;;;;;60.33;32.58;;;10.80;99.90;;;;;;5035489;28;20374;-88
2022/10/15 00:51:59;;;;;;;;;;;10.90;99.90;;;;;;5032658;28;20082;-89
2022/10/15 00:54:28;;;;;;;66.22;33.88;;;10.90;99.90;;;;;;5048968;28;20039;-89
2022/10/15 00:56:54;;;;;;;67.03;35.22;;;10.90;99.90;;;;;;5031098;28;20179;-90
2022/10/15 00:59:24;;;;;;;70.43;37.28;;;11.00;99.90;;;;;;5033119;28;20026;-89
2022/10/15 01:01:50;;;;;;;72.20;36.08;;;11.10;99.90;;;;;;5029148;28;20514;-90
2022/10/15 01:04:17;;;;;;;78.07;38.55;;;11.20;99.90;;;;;;5034025;28;20160;-89
2022/10/15 01:06:43;;;;;;;76.35;39.75;;;11.20;99.90;;;;;;5034300;28;20439;-90
2022/10/15 01:09:10;;;;;;;78.40;39.55;;;11.30;99.90;;;;;;5037486;28;20118;-89
2022/10/15 01:11:45;;;;;;;76.97;39.97;;;11.40;99.90;;;;;;5029339;28;20482;-90
2022/10/15 01:14:35;;;;;;;85.50;42.38;;;11.40;99.90;;;;;;5033121;28;20045;-89
2022/10/15 01:17:24;;;;;;;79.00;40.63;;;11.50;99.90;;;;;;5032443;28;20306;-89
2022/10/15 01:20:26;;;;;;;83.57;40.67;;;11.40;99.90;;;;;;5032801;28;20485;-91
2022/10/15 01:23:30;;;;;;;86.88;41.55;;;11.50;99.90;;;;;;5051529;28;20029;-91
2022/10/15 01:26:37;;;;;;;82.22;41.03;;;11.50;99.90;;;;;;5032418;28;20084;-90
2022/10/15 01:29:13;;;;;;;87.25;41.50;;;11.50;99.90;;;;;;5032577;28;20030;-91
2022/10/15 01:31:53;;;;;;;79.72;39.20;;;11.50;99.90;;;;;;5031173;28;20036;-89
2022/10/15 01:34:34;;;;;;;82.43;40.78;;;11.50;99.90;;;;;;5039041;28;20025;-91
2022/10/15 01:37:15;;;;;;;84.25;39.88;;;11.40;99.90;;;;;;5032302;28;20041;-90
2022/10/15 01:39:45;;;;;;;86.93;41.78;;;11.50;99.90;;;;;;5028680;28;20097;-91
2022/10/15 01:42:32;;;;;;;90.88;42.83;;;11.50;99.90;;;;;;5030161;28;20029;-91
2022/10/15 01:45:04;;;;;;;88.63;41.35;;;11.50;99.90;;;;;;5030089;28;20084;-90
2022/10/15 01:47:45;;;;;;;98.45;42.58;;;11.50;99.90;;;;;;5032818;28;20044;-91
2022/10/15 01:50:13;;;;;;;94.78;42.70;;;11.50;99.90;;;;;;5035789;28;20044;-91
2022/10/15 01:52:40;;;;;;;94.78;42.40;;;11.50;99.90;;;;;;5025981;28;20030;-90
2022/10/15 01:55:11;;;;;;;98.32;43.05;;;11.50;99.90;;;;;;5032319;28;20030;-90
2022/10/15 01:57:39;;;;;;;100.60;44.03;;;11.50;99.90;;;;;;5028306;28;21735;-91
2022/10/15 02:00:06;;;;;;;105.32;42.80;;;11.60;99.90;;;;;;5030095;28;20032;-91
2022/10/15 02:02:31;;;;;;;96.88;44.78;;;11.60;99.90;;;;;;5031355;28;20485;-91
2022/10/15 02:04:57;;;;;;;100.55;45.28;;;11.70;99.90;;;;;;5033285;28;20030;-91
2022/10/15 02:07:46;;;;;;;97.45;45.10;;;11.60;99.90;;;;;;5033479;28;20049;-90
2022/10/15 02:10:29;;;;;;;101.75;44.85;;;11.70;99.90;;;;;;5031715;28;20021;-91
2022/10/15 02:12:55;;;;;;;107.45;47.28;;;11.80;99.90;;;;;;5032616;28;20060;-90
2022/10/15 02:16:00;;;;;;;102.88;46.17;;;11.80;99.90;;;;;;5029408;28;20053;-92
2022/10/15 02:18:39;;;;;;;102.43;44.83;;;11.90;99.90;;;;;;5016104;28;20044;-91
2022/10/15 02:21:16;;;;;;;109.93;47.10;;;11.90;99.90;;;;;;5045381;28;20041;-91
2022/10/15 02:24:00;;;;;;;103.20;45.67;;;11.90;99.90;;;;;;5043665;28;20029;-90
2022/10/15 02:26:29;;;;;;;102.97;47.00;;;12.00;99.90;;;;;;5024999;28;20029;-90
2022/10/15 02:28:58;;;;;;;104.47;46.95;;;12.00;99.90;;;;;;5036432;28;20498;-89
2022/10/15 02:31:25;;;;;;;104.53;48.17;;;12.10;99.90;;;;;;5031931;28;20033;-90
2022/10/15 02:33:54;;;;;;;98.75;46.65;;;12.10;99.90;;;;;;5034550;28;20033;-89
2022/10/15 02:36:20;;;;;;;100.65;47.45;;;12.20;99.90;;;;;;5042743;28;20066;-89
2022/10/15 02:38:49;;;;;;;95.22;46.15;;;12.10;99.90;;;;;;5016981;28;20096;-89
2022/10/15 02:41:14;;;;;;;97.63;45.17;;;12.20;99.90;;;;;;5029374;28;20060;-90
2022/10/15 02:43:40;;;;;;;92.88;45.75;;;12.20;99.90;;;;;;5025145;28;20931;-89
2022/10/15 02:46:08;;;;;;;92.93;46.63;;;12.30;99.90;;;;;;5030324;28;20780;-89
2022/10/15 02:48:34;;;;;;;92.45;46.65;;;12.30;99.90;;;;;;5049732;28;20037;-89
2022/10/15 02:50:59;;;;;;;95.22;46.55;;;12.30;99.90;;;;;;5048220;28;20036;-89
2022/10/15 02:53:25;;;;;;;92.07;45.92;;;12.30;99.90;;;;;;5029917;28;20047;-88
2022/10/15 02:55:51;;;;;;;91.72;44.80;;;12.30;99.90;;;;;;5025800;28;20046;-89
2022/10/15 02:58:16;;;;;;;87.68;44.72;;;12.30;99.90;;;;;;5030705;28;20116;-89
2022/10/15 03:00:42;;;;;;;87.30;45.47;;;12.30;99.90;;;;;;5032165;28;20025;-90
2022/10/15 03:03:07;;;;;;;85.55;44.22;;;12.30;99.90;;;;;;5032491;28;20049;-90
2022/10/15 03:05:34;;;;;;;85.03;44.85;;;12.30;99.90;;;;;;5034322;28;20025;-89
2022/10/15 03:07:59;;;;;;;74.75;41.90;;;12.30;99.90;;;;;;5030904;28;20072;-90
2022/10/15 03:10:25;;;;;;;91.28;45.75;;;12.30;99.90;;;;;;5030031;28;20053;-91
2022/10/15 03:12:51;;;;;;;82.22;43.35;;;12.30;99.90;;;;;;5031843;28;20056;-90
2022/10/15 03:15:16;;;;;;;79.38;41.85;;;12.30;99.90;;;;;;5048412;28;20083;-89
2022/10/15 03:17:42;;;;;;;79.63;43.03;;;12.30;99.90;;;;;;5031606;28;20033;-91
2022/10/15 03:20:08;;;;;;;85.47;44.28;;;12.30;99.90;;;;;;5028359;28;20112;-90
2022/10/15 03:22:33;;;;;;;82.07;43.60;;;12.30;99.90;;;;;;5033937;28;20053;-91
2022/10/15 03:24:59;;;;;;;78.25;41.92;;;12.30;99.90;;;;;;5025090;28;20030;-90
2022/10/15 03:27:24;;;;;;;81.63;44.03;;;12.30;99.90;;;;;;5030051;28;20476;-90
2022/10/15 03:29:50;;;;;;;76.45;40.72;;;12.30;99.90;;;;;;5029740;28;20017;-90
2022/10/15 03:32:15;;;;;;;74.50;42.15;;;12.40;99.90;;;;;;5030790;28;20021;-90
2022/10/15 03:34:41;;;;;;;80.85;42.63;;;12.40;99.90;;;;;;5032027;28;20393;-89
2022/10/15 03:37:07;;;;;;;77.35;42.83;;;12.40;99.90;;;;;;5032720;28;20468;-91
2022/10/15 03:39:32;;;;;;;76.18;41.05;;;12.40;99.90;;;;;;5028570;28;20026;-91
2022/10/15 03:41:58;;;;;;;74.05;42.28;;;12.40;99.90;;;;;;5031948;28;20064;-91
2022/10/15 03:44:23;;;;;;;73.63;40.53;;;12.40;99.90;;;;;;5047081;28;20021;-90
2022/10/15 03:46:49;;;;;;;78.63;44.63;;;12.50;99.90;;;;;;5032150;28;20029;-90
2022/10/15 03:49:14;;;;;;;77.35;41.45;;;12.40;99.90;;;;;;5027235;28;20131;-91
2022/10/15 03:51:40;;;;;;;75.68;41.78;;;12.40;99.90;;;;;;5030325;28;20025;-91
2022/10/15 03:54:05;;;;;;;77.13;41.38;;;12.40;99.90;;;;;;5032031;28;20025;-90
2022/10/15 03:56:31;;;;;;;75.57;41.40;;;12.40;99.90;;;;;;5028147;28;20136;-91
2022/10/15 03:58:57;;;;;;;73.50;40.90;;;12.40;99.90;;;;;;5030437;28;20052;-89
2022/10/15 04:01:22;;;;;;;73.85;39.15;;;12.30;99.90;;;;;;5029928;28;20021;-90
2022/10/15 04:03:51;;;;;;;74.38;41.78;;;12.20;99.90;;;;;;5032029;28;20030;-90
2022/10/15 04:06:17;;;;;;;68.47;39.55;;;12.20;99.90;;;;;;5028127;28;20083;-89
2022/10/15 04:08:43;;;;;;;75.97;40.78;;;12.10;99.90;;;;;;5029548;28;20026;-91
2022/10/15 04:11:08;;;;;;;73.13;40.90;;;12.10;99.90;;;;;;5031912;28;20121;-91
2022/10/15 04:13:34;;;;;;;78.45;41.78;;;12.00;99.90;;;;;;5030171;28;20140;-91
2022/10/15 04:15:59;;;;;;;75.20;40.72;;;12.00;99.90;;;;;;5027221;28;20034;-90
2022/10/15 04:18:25;;;;;;;71.78;40.65;;;11.90;99.90;;;;;;5030237;28;20028;-91
2022/10/15 04:20:50;;;;;;;77.93;42.42;;;11.90;99.90;;;;;;5029225;28;20033;-91
2022/10/15 04:23:16;;;;;;;75.80;40.72;;;11.80;99.90;;;;;;5030026;28;20030;-92
2022/10/15 04:25:42;;;;;;;82.25;42.08;;;11.80;99.90;;;;;;5027958;28;20033;-90
2022/10/15 04:28:08;;;;;;;74.75;40.83;;;11.80;99.90;;;;;;5034077;28;20535;-90
2022/10/15 04:30:33;;;;;;;79.57;42.38;;;11.80;99.90;;;;;;5027199;28;20025;-91
2022/10/15 04:32:59;;;;;;;80.10;42.97;;;11.80;99.90;;;;;;5029903;28;20028;-91
2022/10/15 04:35:24;;;;;;;81.78;42.92;;;11.80;99.90;;;;;;5029474;28;20041;-90
2022/10/15 04:37:50;;;;;;;80.25;42.17;;;11.80;99.90;;;;;;5030279;28;20017;-91
2022/10/15 04:40:17;;;;;;;82.00;41.78;;;11.80;99.90;;;;;;5029015;28;20021;-90
2022/10/15 04:42:42;;;;;;;79.45;42.03;;;11.90;99.90;;;;;;5027835;28;20510;-89
2022/10/15 04:45:08;;;;;;;75.40;40.35;;;11.80;99.90;;;;;;5033416;28;20021;-89
2022/10/15 04:47:34;;;;;;;77.57;40.25;;;11.90;99.90;;;;;;5028822;28;20029;-91
2022/10/15 04:49:59;;;;;;;78.25;42.63;;;11.90;99.90;;;;;;5028803;28;20407;-90
2022/10/15 04:52:25;;;;;;;81.43;43.47;;;11.90;99.90;;;;;;5029006;28;21016;-90
2022/10/15 04:54:50;;;;;;;80.80;41.85;;;12.00;99.90;;;;;;5031292;28;20068;-90
2022/10/15 04:57:16;;;;;;;81.60;43.42;;;12.00;99.90;;;;;;5026795;28;20033;-90
2022/10/15 04:59:43;;;;;;;82.47;43.10;;;12.10;99.90;;;;;;5027336;28;20017;-89
2022/10/15 05:02:09;;;;;;;85.88;40.97;;;12.10;99.90;;;;;;5027821;28;20025;-90
2022/10/15 05:04:35;;;;;;;86.20;43.35;;;12.20;99.90;;;;;;5027838;28;20079;-89
2022/10/15 05:07:01;;;;;;;86.28;42.45;;;12.20;99.90;;;;;;5022714;28;20034;-89
2022/10/15 05:09:26;;;;;;;81.35;42.30;;;12.20;99.90;;;;;;5028986;28;20076;-89
2022/10/15 05:11:54;;;;;;;85.35;41.63;;;12.30;99.90;;;;;;5024065;28;20044;-89
2022/10/15 05:14:19;;;;;;;79.40;41.00;;;12.20;99.90;;;;;;5025811;28;20528;-89
2022/10/15 05:16:45;;;;;;;91.10;42.78;;;12.20;99.90;;;;;;5027806;28;20041;-89
2022/10/15 05:19:11;;;;;;;84.07;42.13;;;12.30;99.90;;;;;;5027171;28;20018;-89
2022/10/15 05:21:37;;;;;;;87.15;42.45;;;12.30;99.90;;;;;;5030561;28;20025;-91
2022/10/15 05:24:04;;;;;;;78.05;42.03;;;12.30;99.90;;;;;;5031963;28;20026;-89
2022/10/15 05:26:31;;;;;;;90.75;43.60;;;12.40;99.90;;;;;;5032933;28;20029;-90
2022/10/15 05:28:57;;;;;;;87.45;42.10;;;12.40;99.90;;;;;;5032073;28;20026;-90
2022/10/15 05:31:25;;;;;;;88.40;42.15;;;12.40;99.90;;;;;;5047963;28;20021;-89
2022/10/15 05:33:52;;;;;;;83.53;41.05;;;12.50;99.90;;;;;;5050343;28;20033;-89
2022/10/15 05:36:20;;;;;;;87.28;42.55;;;12.50;99.90;;;;;;5029447;28;21887;-88
2022/10/15 05:38:51;;;;;;;83.15;42.08;;;12.50;99.90;;;;;;5051917;28;20164;-88
2022/10/15 05:41:17;;;;;;;87.82;40.45;;;12.60;99.90;;;;;;5031645;28;20021;-89
2022/10/15 05:43:46;;;;;;;83.07;40.72;;;12.60;99.90;;;;;;5028461;28;20029;-89
2022/10/15 05:46:11;;;;;;;88.20;40.70;;;12.70;99.90;;;;;;5024036;28;20022;-90
2022/10/15 05:48:37;;;;;;;82.90;39.60;;;12.70;99.90;;;;;;5029611;28;20563;-89
2022/10/15 05:51:09;;;;;;;85.45;39.63;;;12.70;99.90;;;;;;5031004;28;20125;-90
2022/10/15 05:53:35;;;;;;;90.03;40.22;;;12.80;99.90;;;;;;5045402;28;20036;-91
2022/10/15 05:56:00;;;;;;;84.97;38.70;;;12.80;99.90;;;;;;5028198;28;20052;-90
2022/10/15 05:58:28;;;;;;;84.90;37.88;;;12.80;99.90;;;;;;5033922;28;20114;-90
2022/10/15 06:00:55;;;;;;;89.80;39.15;;;12.90;99.90;;;;;;5036355;28;21783;-89
2022/10/15 06:03:21;;;;;;;85.07;38.83;;;12.90;99.90;;;;;;5023949;28;20030;-89
2022/10/15 06:05:47;;;;;;;78.75;36.30;;;13.00;99.90;;;;;;5048356;28;20079;-89
2022/10/15 06:08:12;;;;;;;88.60;35.28;;;13.00;99.90;;;;;;5033197;28;20488;-89
2022/10/15 06:10:38;;;;;;;78.50;35.03;;;13.00;99.90;;;;;;5028911;28;20424;-90
2022/10/15 06:13:04;;;;;;;81.38;35.22;;;13.00;99.90;;;;;;5026518;28;20365;-90
2022/10/15 06:15:31;;;;;;;80.03;35.88;;;13.10;99.90;;;;;;5031420;28;20441;-89
2022/10/15 06:17:56;;;;;;;73.95;34.20;;;13.10;99.90;;;;;;5030518;28;20124;-90
2022/10/15 06:20:22;;;;;;;71.45;33.03;;;13.10;99.90;;;;;;5032260;28;20116;-89
2022/10/15 06:22:47;;;;;;;75.32;32.75;;;13.10;99.90;;;;;;5028740;28;20038;-90
2022/10/15 06:25:13;;;;;;;70.55;31.60;;;13.20;99.90;;;;;;5044963;28;20033;-89
2022/10/15 06:27:38;;;;;;;72.88;32.67;;;13.20;99.90;;;;;;5033069;28;20352;-89
2022/10/15 06:30:05;;;;;;;76.78;33.38;;;13.20;99.90;;;;;;5035487;28;20025;-90
2022/10/15 06:32:30;;;;;;;70.05;32.30;;;13.20;99.90;;;;;;5030992;28;20099;-91
2022/10/15 06:34:56;;;;;;;72.63;32.38;;;13.20;99.90;;;;;;5028304;28;20493;-91
2022/10/15 06:37:21;;;;;;;59.13;28.30;;;13.20;99.90;;;;;;5028324;28;20040;-90
2022/10/15 06:39:47;;;;;;;62.83;28.83;;;13.30;99.90;;;;;;5026285;28;20031;-91
2022/10/15 06:42:12;;;;;;;63.88;28.85;;;13.30;99.90;;;;;;5032232;28;20388;-90
2022/10/15 06:44:38;;;;;;;62.70;27.85;;;13.30;99.90;;;;;;5031246;28;20022;-90
2022/10/15 06:47:04;;;;;;;64.65;29.38;;;13.40;99.90;;;;;;5029642;28;20026;-90
2022/10/15 06:49:30;;;;;;;61.88;30.38;;;13.40;99.90;;;;;;5029016;28;20497;-91
2022/10/15 06:51:55;;;;;;;68.50;31.02;;;13.40;99.90;;;;;;5030825;28;20022;-91
2022/10/15 06:54:21;;;;;;;59.83;28.17;;;13.30;99.90;;;;;;5030392;28;20029;-90
2022/10/15 06:56:46;;;;;;;60.85;28.70;;;13.40;99.90;;;;;;5029733;28;20036;-89
2022/10/15 06:59:12;;;;;;;56.63;27.08;;;13.40;99.90;;;;;;5030774;28;20182;-89
2022/10/15 07:01:37;;;;;;;56.75;26.83;;;13.40;99.90;;;;;;5027798;28;20022;-89
2022/10/15 07:04:03;;;;;;;54.13;26.90;;;13.50;99.90;;;;;;5029286;28;20056;-89
2022/10/15 07:06:28;;;;;;;51.80;25.52;;;13.50;99.90;;;;;;5030819;28;20029;-89
2022/10/15 07:08:54;;;;;;;58.08;26.67;;;13.50;99.90;;;;;;5028880;28;20083;-89
2022/10/15 07:11:19;;;;;;;50.20;25.13;;;13.60;99.90;;;;;;5032886;28;20171;-90
2022/10/15 07:13:45;;;;;;;55.72;27.55;;;13.60;99.90;;;;;;5032205;28;20071;-89
2022/10/15 07:16:12;;;;;;;51.08;25.52;;;13.60;99.90;;;;;;5028766;28;20033;-90
2022/10/15 07:18:38;;;;;;;51.28;25.55;;;13.70;99.90;;;;;;5030810;28;20033;-90
2022/10/15 07:21:05;;;;;;;55.45;28.05;;;13.70;99.90;;;;;;5032226;28;20029;-90
2022/10/15 07:23:31;;;;;;;54.42;27.90;;;13.70;99.90;;;;;;5032664;28;20037;-90
2022/10/15 07:25:58;;;;;;;55.28;27.63;;;13.70;99.90;;;;;;5044026;28;20033;-90
2022/10/15 07:28:24;;;;;;;57.22;29.02;;;13.70;99.90;;;;;;5028928;28;20405;-91
2022/10/15 07:30:49;;;;;;;55.35;28.38;;;13.70;99.90;;;;;;5026657;28;20029;-91
2022/10/15 07:33:15;;;;;;;57.97;29.27;;;13.80;99.90;;;;;;5028317;28;20033;-90
2022/10/15 07:35:40;;;;;;;57.50;28.60;;;13.80;99.90;;;;;;5033039;28;20033;-89
2022/10/15 07:38:06;;;;;;;58.50;30.50;;;13.80;99.90;;;;;;5023954;28;21775;-91
2022/10/15 07:40:32;;;;;;;63.20;32.05;;;13.90;99.90;;;;;;5024728;28;20096;-90
2022/10/15 07:42:58;;;;;;;60.35;31.20;;;13.90;99.90;;;;;;5027592;28;20537;-90
2022/10/15 07:45:25;;;;;;;62.10;32.00;;;14.00;99.90;;;;;;5030775;28;20068;-90
2022/10/15 07:47:51;;;;;;;56.88;30.08;;;14.10;99.90;;;;;;5028751;28;20097;-90
2022/10/15 07:50:17;;;;;;;62.40;32.50;;;14.10;99.90;;;;;;5029712;28;20065;-91
2022/10/15 07:52:43;;;;;;;59.90;30.35;;;14.10;99.90;;;;;;5047518;28;20021;-90
2022/10/15 07:55:09;;;;;;;49.88;28.88;;;14.10;99.90;;;;;;5033368;28;20047;-91
2022/10/15 07:57:35;;;;;;;57.40;30.55;;;14.10;99.90;;;;;;5027603;28;21454;-90
2022/10/15 08:00:01;;;;;;;54.38;29.27;;;14.10;99.90;;;;;;5029966;28;20026;-89
2022/10/15 08:02:27;;;;;;;53.03;30.40;;;14.10;99.90;;;;;;5025017;28;20026;-90
2022/10/15 08:04:52;;;;;;;47.85;26.08;;;14.20;99.90;;;;;;5030665;28;20043;-90
2022/10/15 08:07:18;;;;;;;52.25;28.30;;;14.20;99.90;;;;;;5026699;28;20033;-90
2022/10/15 08:09:43;;;;;;;54.08;28.30;;;14.30;99.90;;;;;;5030503;28;20078;-90
2022/10/15 08:12:09;;;;;;;57.95;30.42;;;14.40;99.90;;;;;;5043132;28;20021;-91
2022/10/15 08:14:35;;;;;;;49.80;28.55;;;14.60;99.90;;;;;;5034838;28;20041;-90
2022/10/15 08:17:02;;;;;;;45.05;25.73;;;14.70;99.90;;;;;;5031742;28;20040;-90
2022/10/15 08:19:28;;;;;;;45.22;26.05;;;14.90;99.90;;;;;;5030507;28;20053;-91
2022/10/15 08:21:54;;;;;;;40.15;23.95;;;14.90;99.90;;;;;;5029636;28;20119;-91
2022/10/15 08:24:19;;;;;;;40.30;24.67;;;14.90;99.90;;;;;;5031787;28;20032;-91
2022/10/15 08:26:45;;;;;;;43.85;26.05;;;15.00;99.90;;;;;;5028781;28;20030;-90
2022/10/15 08:29:11;;;;;;;42.47;24.80;;;15.00;99.90;;;;;;5046059;28;20035;-91
2022/10/15 08:31:38;;;;;;;40.97;23.85;;;15.10;99.90;;;;;;5024306;28;20028;-90
2022/10/15 08:34:04;;;;;;;37.95;22.58;;;15.10;99.90;;;;;;5039554;28;20060;-91
2022/10/15 08:36:30;;;;;;;37.83;22.45;;;15.00;99.90;;;;;;5035137;28;20064;-91
2022/10/15 08:38:55;;;;;;;38.92;21.75;;;15.00;99.90;;;;;;5018486;28;20097;-90
2022/10/15 08:41:37;;;;;;;35.20;21.35;;;15.00;99.90;;;;;;5032978;28;20029;-90
2022/10/15 08:44:03;;;;;;;35.30;20.92;;;15.00;99.90;;;;;;5031634;28;20029;-90
2022/10/15 08:46:36;;;;;;;35.38;21.27;;;15.00;99.90;;;;;;5047706;28;20025;-90
2022/10/15 08:49:03;;;;;;;36.78;21.73;;;15.10;99.90;;;;;;5044284;28;20045;-90
2022/10/15 08:51:40;;;;;;;34.65;21.48;;;15.20;99.90;;;;;;5028998;28;20091;-90
2022/10/15 08:54:09;;;;;;;37.25;21.73;;;15.30;99.90;;;;;;5034045;28;20069;-90
2022/10/15 08:56:42;;;;;;;35.30;20.92;;;15.30;99.90;;;;;;5051458;28;20506;-89
2022/10/15 08:59:31;;;;;;;33.00;20.30;;;15.40;99.90;;;;;;5036254;28;20030;-90
2022/10/15 09:02:17;;;;;;;29.30;18.25;;;15.60;99.90;;;;;;5032280;28;20022;-87
2022/10/15 09:04:55;;;;;;;29.95;17.92;;;15.60;99.90;;;;;;5027888;28;20022;-89
2022/10/15 09:07:34;;;;;;;27.27;17.80;;;15.60;99.90;;;;;;5028323;28;20021;-88
2022/10/15 09:10:16;;;;;;;30.40;18.13;;;15.70;99.90;;;;;;5048382;28;20014;-88
2022/10/15 09:12:51;;;;;;;26.02;16.20;;;15.80;99.90;;;;;;5035321;28;20036;-89
2022/10/15 09:15:19;;;;;;;25.67;15.65;;;15.80;99.90;;;;;;5020487;28;20042;-87
2022/10/15 09:17:47;;;;;;;24.15;15.25;;;15.90;99.90;;;;;;5019328;28;20131;-89
2022/10/15 09:20:19;;;;;;;22.83;13.27;;;16.00;99.90;;;;;;5030301;28;20048;-89
2022/10/15 09:22:49;;;;;;;22.70;14.27;;;16.00;99.90;;;;;;5034778;28;20025;-88
2022/10/15 09:25:18;;;;;;;23.60;15.18;;;16.00;99.90;;;;;;5034578;28;20029;-88
2022/10/15 09:27:46;;;;;;;22.40;14.10;;;16.10;99.90;;;;;;5035485;28;20454;-88
2022/10/15 09:30:23;;;;;;;23.95;13.95;;;16.00;99.90;;;;;;5034454;28;20021;-88
2022/10/15 09:33:27;;;;;;;19.88;13.48;;;16.10;99.90;;;;;;5034430;28;20090;-89
2022/10/15 09:36:01;;;;;;;19.20;12.77;;;16.10;99.90;;;;;;5031335;28;20120;-88
2022/10/15 09:38:32;;;;;;;18.25;12.32;;;16.10;99.90;;;;;;5034471;28;20029;-88
2022/10/15 09:41:35;;;;;;;17.98;12.15;;;16.20;99.90;;;;;;5031640;28;20075;-88
2022/10/15 09:44:01;;;;;;;17.40;11.65;;;16.30;99.90;;;;;;5025435;28;20032;-88
2022/10/15 09:46:27;;;;;;;18.80;12.15;;;16.30;99.90;;;;;;5036245;28;20079;-88
2022/10/15 09:49:01;;;;;;;16.65;11.60;;;16.30;99.90;;;;;;5034019;28;20119;-88
2022/10/15 09:51:34;;;;;;;16.75;11.25;;;16.30;99.90;;;;;;5033423;28;20029;-88
2022/10/15 09:54:16;;;;;;;18.65;11.70;;;16.30;99.90;;;;;;5032467;28;20063;-88
2022/10/15 09:56:47;;;;;;;18.48;11.65;;;16.30;99.90;;;;;;5034059;28;20077;-89
2022/10/15 09:59:20;;;;;;;19.77;12.07;;;16.20;99.90;;;;;;5050779;28;20022;-90
2022/10/15 10:02:17;;;;;;;18.70;11.73;;;16.20;99.90;;;;;;5034883;28;20025;-92
2022/10/15 10:04:43;;;;;;;18.92;11.90;;;16.20;99.90;;;;;;5033926;28;20025;-91
2022/10/15 10:07:37;;;;;;;17.15;11.38;;;16.10;99.90;;;;;;5031703;28;20030;-92
2022/10/15 10:10:26;;;;;;;19.25;11.43;;;16.00;99.90;;;;;;5018394;28;20108;-91
2022/10/15 10:12:54;;;;;;;19.85;10.85;;;16.00;99.90;;;;;;5031308;28;20026;-92
2022/10/15 10:15:40;;;;;;;18.40;12.02;;;15.90;99.90;;;;;;5035122;28;20033;-93
2022/10/15 10:18:18;;;;;;;20.75;13.57;;;15.80;99.90;;;;;;5034816;28;20030;-92
2022/10/15 10:20:53;;;;;;;22.48;12.82;;;15.80;99.90;;;;;;5046200;28;20018;-91
2022/10/15 10:23:24;;;;;;;19.85;11.63;;;15.80;99.90;;;;;;5030857;28;20030;-93
2022/10/15 10:25:50;;;;;;;20.02;11.73;;;15.80;99.90;;;;;;5043008;28;20033;-92
2022/10/15 10:28:24;;;;;;;22.60;12.18;;;15.70;99.90;;;;;;5035054;28;20029;-92
2022/10/15 10:31:06;;;;;;;18.20;11.10;;;15.80;99.90;;;;;;5041104;28;20355;-91
2022/10/15 10:33:34;;;;;;;20.90;11.82;;;15.80;99.90;;;;;;5031875;28;20063;-92
2022/10/15 10:36:00;;;;;;;19.00;11.65;;;15.80;99.90;;;;;;5046084;28;20117;-91
2022/10/15 10:38:31;;;;;;;17.25;10.88;;;15.80;99.90;;;;;;5043773;28;20568;-91
2022/10/15 10:41:06;;;;;;;20.25;11.60;;;15.80;99.90;;;;;;5035504;28;20493;-91
2022/10/15 10:43:34;;;;;;;17.60;11.05;;;15.80;99.90;;;;;;5036425;28;20064;-92
2022/10/15 10:46:03;;;;;;;21.23;12.65;;;15.90;99.90;;;;;;5029852;28;20030;-92
2022/10/15 10:48:41;;;;;;;20.65;11.90;;;15.80;99.90;;;;;;5039683;28;20029;-92
2022/10/15 10:51:17;;;;;;;18.80;10.85;;;15.70;99.90;;;;;;5030198;28;20060;-91
2022/10/15 10:53:59;;;;;;;20.92;12.23;;;15.70;99.90;;;;;;5033796;28;20021;-91
2022/10/15 10:56:46;;;;;;;19.20;11.90;;;15.60;99.90;;;;;;5033682;28;20125;-91
2022/10/15 10:59:21;;;;;;;18.65;11.70;;;15.60;99.90;;;;;;5046558;28;20077;-92
2022/10/15 11:01:47;;;;;;;22.60;11.38;;;15.60;99.90;;;;;;5042577;28;20029;-91
2022/10/15 11:04:20;;;;;;;22.63;12.43;;;15.50;99.90;;;;;;5033016;28;20100;-92
2022/10/15 11:07:19;;;;;;;19.63;11.98;;;15.50;99.90;;;;;;5018180;28;20509;-92
2022/10/15 11:10:08;;;;;;;17.42;11.10;;;15.50;99.90;;;;;;5035034;28;20811;-91
2022/10/15 11:12:50;;;;;;;15.52;10.02;;;15.60;99.90;;;;;;5034328;28;20037;-92
2022/10/15 11:15:31;;;;;;;16.35;10.48;;;15.60;99.90;;;;;;5049013;28;20052;-91
2022/10/15 11:18:15;;;;;;;13.50;8.20;;;15.60;99.90;;;;;;5033265;28;20513;-92
2022/10/15 11:20:56;;;;;;;17.98;10.20;;;15.60;99.90;;;;;;5034732;28;20056;-91
2022/10/15 11:23:45;;;;;;;16.33;8.90;;;15.60;99.90;;;;;;5034942;28;20500;-92
2022/10/15 11:26:44;;;;;;;17.98;9.75;;;15.60;99.90;;;;;;5048576;28;20030;-91
2022/10/15 11:29:40;;;;;;;14.57;9.23;;;15.70;99.90;;;;;;5013674;28;20026;-90
2022/10/15 11:32:41;;;;;;;13.25;8.23;;;15.70;99.90;;;;;;5032699;28;20026;-91
2022/10/15 11:35:10;;;;;;;13.93;7.22;;;15.80;99.90;;;;;;5030274;28;20029;-91
2022/10/15 11:38:03;;;;;;;13.93;8.02;;;15.80;99.90;;;;;;5033882;28;20030;-92
2022/10/15 11:40:43;;;;;;;12.13;8.07;;;15.90;99.90;;;;;;5023928;28;20056;-91
2022/10/15 11:43:50;;;;;;;10.60;7.13;;;15.90;99.90;;;;;;5032227;28;20076;-93
2022/10/15 11:46:40;;;;;;;11.40;6.10;;;15.90;99.90;;;;;;5021600;28;20124;-92
2022/10/15 11:49:38;;;;;;;12.05;6.88;;;15.90;99.90;;;;;;5063669;28;20555;-91
2022/10/15 11:52:23;;;;;;;10.05;6.72;;;16.00;99.90;;;;;;5042268;28;20037;-93
2022/10/15 11:55:02;;;;;;;10.50;6.38;;;16.10;99.90;;;;;;5032296;28;20029;-92
2022/10/15 11:57:31;;;;;;;9.90;6.30;;;16.10;99.90;;;;;;5031992;28;20037;-91
2022/10/15 12:00:14;;;;;;;9.35;6.22;;;16.20;99.90;;;;;;5035879;28;20037;-92
2022/10/15 12:02:40;;;;;;;8.05;5.30;;;16.20;99.90;;;;;;5032302;28;20378;-92
2022/10/15 12:05:07;;;;;;;7.93;5.03;;;16.30;99.90;;;;;;5032193;28;20155;-91
2022/10/15 12:07:40;;;;;;;6.82;5.35;;;16.40;99.90;;;;;;5032458;28;20037;-91
2022/10/15 12:10:39;;;;;;;7.43;5.32;;;16.40;99.90;;;;;;5031582;28;20025;-91
2022/10/15 12:13:11;;;;;;;8.35;4.93;;;16.50;99.90;;;;;;5027702;28;20086;-91
2022/10/15 12:16:02;;;;;;;5.35;4.65;;;16.50;99.90;;;;;;5034076;28;20470;-91
2022/10/15 12:18:50;;;;;;;6.72;5.57;;;16.60;99.90;;;;;;5045992;28;20033;-91
2022/10/15 12:21:38;;;;;;;5.60;5.00;;;16.70;99.90;;;;;;5023035;28;20032;-91
2022/10/15 12:24:25;;;;;;;7.35;4.70;;;16.80;99.90;;;;;;5031420;28;20029;-92
2022/10/15 12:26:50;;;;;;;5.90;4.47;;;16.90;99.90;;;;;;5029110;28;20030;-93
2022/10/15 12:29:28;;;;;;;5.10;4.60;;;16.90;99.90;;;;;;5037204;28;20029;-92
2022/10/15 12:31:57;;;;;;;6.30;4.43;;;17.00;99.90;;;;;;5036499;28;20136;-93
2022/10/15 12:34:27;;;;;;;4.97;4.47;;;17.00;99.90;;;;;;5019377;28;20029;-93
2022/10/15 12:37:08;;;;;;;5.47;4.65;;;17.10;99.90;;;;;;5033475;28;20106;-95
2022/10/15 12:39:35;;;;;;;4.57;4.13;;;17.10;99.90;;;;;;5029880;28;20068;-94
2022/10/15 12:42:01;;;;;;;5.95;4.38;;;17.10;99.90;;;;;;5044785;28;20534;-94
2022/10/15 12:44:30;;;;;;;5.00;4.50;;;17.20;99.90;;;;;;5034979;28;20021;-94
2022/10/15 12:46:56;;;;;;;6.32;5.38;;;17.30;99.90;;;;;;5032416;28;20061;-94
2022/10/15 12:49:25;;;;;;;5.80;5.30;;;17.40;99.90;;;;;;5030902;28;20081;-93